Terminal Aerodrome Forecast
Issued by NWS

Home | Current Version | Previous Version | Text Only | Print | Product List | Glossary On
Versions: 1 2 3 4 5 6 7 8 9 10 11 12 13 14 15 16 17 18 19
000
FTUS41 KRLX 271737
TAFCKB
TAF
KCKB 271737Z 2718/2818 24005KT P6SM BKN050
      TEMPO 2718/2720 VRB15G25KT 2SM TSRA OVC030CB
     FM280000 VRB02KT 4SM SHRA VCTS OVC022CB
     FM280300 VRB02KT 5SM SHRA OVC017
     FM280600 VRB02KT 3SM BR OVC008
     FM281200 VRB02KT 2SM BR OVC011
     FM281500 VRB02KT 5SM -SHRA VCTS BKN014CB=

USA.gov is the U.S. government's official web portal to all federal, state and local government web resources and services.